Scranton, Kansas
Current Conditions -  °F | °C
As of 11:53 PM on Friday 19 Dec 2014 (Local Time) from KFOE Reporting Station
Overcast Overcast  
Wind Chill: 34°   Ceiling: 1200
Heat Index: 34°   Visibility: 10mi
Dew Point: 29°   Wind: 3mph
Humidity: 82%   Direction: 180°S
Pressure: 30.2"   Gusts: NA
Location:  38.78°N, 95.74°W
Report Text: KFOE 200553Z AUTO 18003KT 10SM OVC012 01/M02 A3020 RMK AO2 SLP234 T00111017 10011 20006 400111011 58000
Loading
Personal Weather Stations






























Interactive Weather Map New forecast layout! Learn more

10-Day Weather Forecast

Advertisements
Track Severe Weather on mobile